createdAt,value
2022-12-09T00:00:45.772Z,97828.02
2022-12-09T00:10:57.601Z,97825.49
2022-12-09T00:21:12.857Z,97826.69
2022-12-09T00:31:24.683Z,97834.64
2022-12-09T00:41:33.084Z,97839.64
2022-12-09T00:51:40.140Z,97846.17
2022-12-09T01:01:47.405Z,97854.42
2022-12-09T01:11:52.271Z,97860.74
2022-12-09T01:21:59.363Z,97861.10
2022-12-09T01:32:05.082Z,97854.73
2022-12-09T01:42:20.510Z,97841.69
2022-12-09T01:52:27.978Z,97837.20
2022-12-09T02:02:38.519Z,97841.10
2022-12-09T02:12:49.697Z,97829.70
2022-12-09T02:23:00.947Z,97817.33
2022-12-09T02:33:10.921Z,97812.75
2022-12-09T02:43:19.634Z,97807.96
2022-12-09T02:53:28.341Z,97810.98
2022-12-09T03:03:37.396Z,97810.31
2022-12-09T03:13:45.139Z,97814.84
2022-12-09T03:23:56.332Z,97803.32
2022-12-09T03:34:08.541Z,97796.23
2022-12-09T03:44:18.091Z,97792.04
2022-12-09T03:54:25.525Z,97787.16
2022-12-09T04:04:33.166Z,97786.25
2022-12-09T04:14:40.386Z,97775.79
2022-12-09T04:24:47.588Z,97774.88
2022-12-09T04:34:54.925Z,97773.53
2022-12-09T04:45:02.324Z,97785.19
2022-12-09T04:55:10.051Z,97786.98
2022-12-09T05:05:16.020Z,97788.41
2022-12-09T05:15:23.732Z,97789.14
2022-12-09T05:25:31.805Z,97791.20
2022-12-09T05:35:49.175Z,97794.61
2022-12-09T05:45:59.511Z,97798.00
2022-12-09T05:56:06.013Z,97799.05
2022-12-09T06:06:16.347Z,97793.80
2022-12-09T06:16:25.045Z,97792.18
2022-12-09T06:26:31.964Z,97790.21
2022-12-09T06:36:39.333Z,97796.13
2022-12-09T06:46:47.134Z,97799.83
2022-12-09T06:56:53.986Z,97813.36
2022-12-09T07:07:04.304Z,97813.99
2022-12-09T07:17:18.559Z,97802.48
2022-12-09T07:27:25.815Z,97783.73
2022-12-09T07:37:46.954Z,97774.70
2022-12-09T07:47:54.512Z,97776.83
2022-12-09T07:58:02.269Z,97776.38
2022-12-09T08:08:10.103Z,97783.45
2022-12-09T08:18:18.097Z,97793.02
2022-12-09T08:28:26.915Z,97791.95
2022-12-09T08:38:35.736Z,97804.71
2022-12-09T08:48:44.744Z,97806.86
2022-12-09T08:58:52.540Z,97805.84
2022-12-09T09:19:06.847Z,97795.43
2022-12-09T09:29:16.083Z,97781.70
2022-12-09T09:39:23.980Z,97778.19
2022-12-09T09:49:31.164Z,97777.98
2022-12-09T09:59:45.619Z,97780.94
2022-12-09T10:20:05.965Z,97756.29
2022-12-09T10:30:17.300Z,97755.02
2022-12-09T10:40:25.166Z,97744.00
2022-12-09T10:50:30.799Z,97747.36
2022-12-09T11:00:39.667Z,97747.59
2022-12-09T11:10:50.280Z,97738.95
2022-12-09T11:20:56.294Z,97730.32
2022-12-09T11:41:52.263Z,97700.25
2022-12-09T11:52:04.496Z,97707.48
2022-12-09T12:02:22.777Z,97699.98
2022-12-09T12:12:29.752Z,97676.46
2022-12-09T12:22:42.624Z,97672.27
2022-12-09T12:33:53.052Z,97673.19
2022-12-09T12:43:55.261Z,97668.44
2022-12-09T12:54:01.742Z,97680.61
2022-12-09T13:04:12.245Z,97677.84
2022-12-09T13:14:21.685Z,97665.29
2022-12-09T13:24:26.688Z,97657.86
2022-12-09T13:34:32.960Z,97658.10
2022-12-09T13:44:40.825Z,97652.21
2022-12-09T13:54:47.431Z,97644.61
2022-12-09T14:04:55.811Z,97635.45
2022-12-09T14:15:06.659Z,97617.59
2022-12-09T14:25:51.439Z,97590.68
2022-12-09T14:35:57.157Z,97601.59
2022-12-09T14:46:03.668Z,97613.88
2022-12-09T14:56:10.536Z,97614.16
2022-12-09T15:06:20.828Z,97604.23
2022-12-09T15:16:27.007Z,97588.56
2022-12-09T15:26:35.795Z,97590.27
2022-12-09T15:36:47.131Z,97556.96
2022-12-09T15:46:57.181Z,97553.13
2022-12-09T15:57:07.307Z,97555.55
2022-12-09T16:07:19.812Z,97546.33
2022-12-09T16:17:30.524Z,97540.04
2022-12-09T16:27:44.464Z,97534.09
2022-12-09T16:38:22.554Z,97541.04
2022-12-09T16:48:31.665Z,97531.77
2022-12-09T16:58:38.810Z,97510.40
2022-12-09T17:08:46.743Z,97492.09
2022-12-09T17:18:54.205Z,97487.14
2022-12-09T17:29:02.217Z,97484.34
2022-12-09T17:39:12.742Z,97478.00
2022-12-09T17:49:20.550Z,97478.50
2022-12-09T17:59:27.797Z,97479.23
2022-12-09T18:09:35.086Z,97475.00
2022-12-09T18:19:41.140Z,97468.20
2022-12-09T18:49:59.805Z,97450.89
2022-12-09T19:00:10.778Z,97449.36
2022-12-09T19:10:18.661Z,97452.68
2022-12-09T19:20:28.088Z,97454.56
2022-12-09T19:30:35.031Z,97444.06
2022-12-09T19:40:45.636Z,97430.19
2022-12-09T19:50:51.824Z,97419.33
2022-12-09T20:00:59.319Z,97417.45
2022-12-09T20:11:06.924Z,97422.53
2022-12-09T20:21:15.708Z,97413.80
2022-12-09T20:31:27.727Z,97400.00
2022-12-09T20:51:44.175Z,97385.68
2022-12-09T21:01:54.451Z,97370.55
2022-12-09T21:12:00.967Z,97372.37
2022-12-09T21:22:09.387Z,97371.46
2022-12-09T21:32:19.259Z,97365.63
2022-12-09T21:42:25.267Z,97363.51
2022-12-09T21:52:34.880Z,97355.59
2022-12-09T22:02:41.539Z,97366.29
2022-12-09T22:12:49.065Z,97369.38
2022-12-09T22:22:56.225Z,97370.87
2022-12-09T22:33:03.637Z,97369.64
2022-12-09T22:43:11.048Z,97367.70
2022-12-09T22:53:18.684Z,97369.65
2022-12-09T23:03:26.345Z,97366.54
2022-12-09T23:13:39.150Z,97372.19
2022-12-09T23:23:48.700Z,97365.70
2022-12-09T23:33:57.152Z,97364.91
2022-12-09T23:44:04.883Z,97372.67
2022-12-09T23:54:14.930Z,97373.16
